Time;durP1;ratioP1;P1;durP2;ratioP2;P2;SDS_P1;SDS_P2;PMS_P1;PMS_P2;Temp;Humidity;BMP_temperature;BMP_pressure;BME280_temperature;BME280_humidity;BME280_pressure;Samples;Min_cycle;Max_cycle;Signal;HPM_P1;HPM_P2
2023/12/25 00:00:58;;;;;;;;;4.33;2.33;;;;;13.06;100.00;101381.00;5040986;28;45321;-79
2023/12/25 00:03:24;;;;;;;;;4.00;3.33;;;;;12.90;100.00;101360.56;5039498;28;45430;-80
2023/12/25 00:05:49;;;;;;;;;4.67;3.67;;;;;12.85;100.00;101346.66;5022164;28;45977;-79
2023/12/25 00:08:14;;;;;;;;;5.33;3.00;;;;;13.22;100.00;101404.22;5040425;28;45616;-79
2023/12/25 00:10:40;;;;;;;;;4.67;3.00;;;;;13.26;100.00;101408.41;5040397;28;45403;-79
2023/12/25 00:13:05;;;;;;;;;7.67;3.67;;;;;13.03;100.00;101383.81;5040381;28;46244;-79
2023/12/25 00:15:30;;;;;;;;;3.00;2.00;;;;;13.21;100.00;101408.66;5021990;28;45302;-79
2023/12/25 00:17:56;;;;;;;;;1.00;1.00;;;;;13.02;100.00;101371.44;5019001;28;49280;-79
2023/12/25 00:20:21;;;;;;;;;4.00;2.33;;;;;13.05;100.00;101384.59;5038303;28;45346;-79
2023/12/25 00:22:46;;;;;;;;;5.00;3.33;;;;;13.26;100.00;101411.06;5023100;28;46369;-78
2023/12/25 00:25:12;;;;;;;;;4.67;2.00;;;;;13.25;100.00;101396.09;5040417;28;45234;-79
2023/12/25 00:27:37;;;;;;;;;1.00;1.00;;;;;13.13;100.00;101378.06;5019147;28;45596;-79
2023/12/25 00:30:03;;;;;;;;;3.00;3.00;;;;;12.86;100.00;101338.63;5037480;28;45390;-79
2023/12/25 00:32:28;;;;;;;;;3.00;1.67;;;;;13.23;100.00;101413.88;5040410;28;46218;-78
2023/12/25 00:34:54;;;;;;;;;4.33;2.00;;;;;12.88;100.00;101334.09;5039555;28;45517;-79
2023/12/25 00:37:19;;;;;;;;;3.00;3.00;;;;;13.22;100.00;101385.63;5025954;28;45887;-78
2023/12/25 00:39:46;;;;;;;;;3.00;3.00;;;;;13.24;100.00;101397.88;5046073;28;45479;-78
2023/12/25 00:42:11;;;;;;;;;4.00;3.00;;;;;13.21;100.00;101392.72;5039670;28;45558;-79
2023/12/25 00:44:36;;;;;;;;;5.00;3.67;;;;;13.24;100.00;101392.56;5047025;28;45431;-79
2023/12/25 00:47:02;;;;;;;;;4.00;2.67;;;;;13.12;100.00;101371.91;5009418;28;45511;-79
2023/12/25 00:49:27;;;;;;;;;2.00;2.00;;;;;13.19;100.00;101385.75;5039756;28;45845;-79
2023/12/25 00:51:53;;;;;;;;;4.67;2.33;;;;;13.14;100.00;101370.06;5039575;28;45364;-79
2023/12/25 00:54:19;;;;;;;;;5.33;3.00;;;;;12.87;100.00;101345.66;5021759;28;45445;-78
2023/12/25 00:56:44;;;;;;;;;2.00;2.00;;;;;13.18;100.00;101373.41;5040313;28;45356;-78
2023/12/25 00:59:09;;;;;;;;;3.33;3.33;;;;;13.11;100.00;101359.59;5021389;28;45335;-79
2023/12/25 01:01:35;;;;;;;;;0.33;0.33;;;;;12.70;100.00;101319.03;5040208;28;46490;-78
2023/12/25 01:04:00;;;;;;;;;3.00;3.00;;;;;13.17;100.00;101403.56;5037839;28;45293;-78
2023/12/25 01:06:26;;;;;;;;;4.00;2.33;;;;;12.90;100.00;101364.09;5040139;28;45341;-77
2023/12/25 01:08:51;;;;;;;;;3.00;3.00;;;;;13.02;100.00;101383.91;5039632;28;45643;-81
2023/12/25 01:11:17;;;;;;;;;3.67;2.67;;;;;13.10;100.00;101396.81;5039298;28;46460;-80
2023/12/25 01:13:42;;;;;;;;;6.00;2.67;;;;;13.18;100.00;101408.81;5039468;28;45305;-78
2023/12/25 01:16:07;;;;;;;;;5.67;3.33;;;;;12.70;100.00;101312.88;5039380;28;45419;-80
2023/12/25 01:18:33;;;;;;;;;3.33;2.00;;;;;12.87;100.00;101332.38;5021163;28;45389;-78
2023/12/25 01:20:58;;;;;;;;;2.33;2.33;;;;;13.06;100.00;101374.81;5039190;28;45516;-78
2023/12/25 01:23:23;;;;;;;;;5.33;3.00;;;;;12.93;100.00;101340.03;5021130;28;44852;-79
2023/12/25 01:25:49;;;;;;;;;5.00;3.00;;;;;13.16;100.00;101405.34;5039594;28;45530;-79
2023/12/25 01:28:14;;;;;;;;;5.00;4.00;;;;;12.93;100.00;101339.19;5039189;28;45466;-78
2023/12/25 01:30:39;;;;;;;;;2.00;2.00;;;;;12.96;100.00;101339.03;5039263;28;45493;-78
2023/12/25 01:33:05;;;;;;;;;5.00;2.00;;;;;13.11;100.00;101359.59;5037354;28;49211;-78
2023/12/25 01:35:30;;;;;;;;;1.33;1.33;;;;;13.17;100.00;101364.59;5038697;28;51713;-79
2023/12/25 01:37:55;;;;;;;;;3.00;2.00;;;;;13.12;100.00;101349.81;5043766;28;45344;-78
2023/12/25 01:40:21;;;;;;;;;3.33;1.00;;;;;13.14;100.00;101353.25;5059100;28;45302;-79
2023/12/25 01:42:47;;;;;;;;;4.67;3.00;;;;;13.22;100.00;101367.88;5020957;28;45419;-78
2023/12/25 01:45:13;;;;;;;;;4.67;3.00;;;;;13.15;100.00;101345.22;5040350;28;45466;-78
2023/12/25 01:47:38;;;;;;;;;3.33;2.67;;;;;13.15;100.00;101336.38;5042686;28;45385;-79
2023/12/25 01:50:06;;;;;;;;;8.67;3.00;;;;;13.14;100.00;101350.59;5019332;28;45882;-78
2023/12/25 01:52:31;;;;;;;;;9.00;3.00;;;;;12.96;100.00;101339.91;5019708;28;45326;-79
2023/12/25 01:54:58;;;;;;;;;4.67;2.00;;;;;13.10;100.00;101344.56;5020946;28;45394;-78
2023/12/25 01:57:25;;;;;;;;;2.67;2.00;;;;;12.84;100.00;101303.31;5038704;28;45552;-78
2023/12/25 01:59:51;;;;;;;;;6.67;4.00;;;;;13.17;100.00;101348.66;5017674;28;45451;-78
2023/12/25 02:02:18;;;;;;;;;5.67;2.33;;;;;13.15;100.00;101354.97;5015409;28;50351;-78
2023/12/25 02:04:44;;;;;;;;;4.67;2.00;;;;;12.98;100.00;101326.56;5039232;28;45289;-78
2023/12/25 02:07:10;;;;;;;;;5.00;2.00;;;;;13.09;100.00;101358.78;5037434;28;45426;-79
2023/12/25 02:09:36;;;;;;;;;3.33;1.33;;;;;13.16;100.00;101362.84;5050322;28;46285;-78
2023/12/25 02:12:01;;;;;;;;;4.00;2.00;;;;;12.90;100.00;101329.56;5037271;28;45286;-79
2023/12/25 02:14:27;;;;;;;;;2.67;1.00;;;;;12.69;100.00;101297.91;5037530;28;45321;-78
2023/12/25 02:16:53;;;;;;;;;4.33;2.67;;;;;13.15;100.00;101371.78;5038600;28;45226;-78
2023/12/25 02:19:34;;;;;;;;;1.00;1.00;;;;;13.15;100.00;101376.22;5039839;28;46518;-79
2023/12/25 02:22:00;;;;;;;;;2.67;1.00;;;;;13.15;100.00;101369.13;5038412;28;45297;-78
2023/12/25 02:24:30;;;;;;;;;3.33;2.00;;;;;13.13;100.00;101370.97;5038701;28;45298;-78
2023/12/25 02:26:56;;;;;;;;;1.00;1.00;;;;;12.95;100.00;101338.19;5038768;28;45381;-78
2023/12/25 02:29:21;;;;;;;;;3.00;1.00;;;;;12.90;100.00;101329.56;5038395;28;45438;-78
2023/12/25 02:31:48;;;;;;;;;1.00;1.00;;;;;13.10;100.00;101378.22;5020294;28;45433;-78
2023/12/25 02:34:14;;;;;;;;;1.33;1.33;;;;;13.00;100.00;101351.22;5038831;28;45271;-78
2023/12/25 02:36:39;;;;;;;;;3.00;1.00;;;;;13.15;100.00;101378.88;5020251;28;45523;-79
2023/12/25 02:39:04;;;;;;;;;1.00;1.00;;;;;13.06;100.00;101378.34;5038487;28;46467;-79
2023/12/25 02:41:30;;;;;;;;;5.00;1.00;;;;;13.01;100.00;101367.09;5020564;28;45392;-78
2023/12/25 02:43:56;;;;;;;;;1.67;1.67;;;;;13.16;100.00;101400.03;5029799;28;45281;-78
2023/12/25 02:46:21;;;;;;;;;2.67;1.67;;;;;13.02;100.00;101375.94;5038625;28;45250;-78
2023/12/25 02:48:46;;;;;;;;;3.00;2.67;;;;;13.16;100.00;101392.06;5034118;28;48223;-78
2023/12/25 02:51:11;;;;;;;;;3.67;1.33;;;;;13.17;100.00;101396.47;5016644;28;45433;-79
2023/12/25 02:53:37;;;;;;;;;2.00;2.00;;;;;13.21;100.00;101397.19;5039860;28;45220;-78
2023/12/25 02:56:02;;;;;;;;;2.00;2.00;;;;;13.14;100.00;101387.78;5017795;28;45308;-78
2023/12/25 02:58:28;;;;;;;;;0.67;0.67;;;;;13.18;100.00;101381.38;5020394;28;46416;-78
2023/12/25 03:00:53;;;;;;;;;0.67;0.33;;;;;13.25;100.00;101388.13;5004157;28;45365;-78
2023/12/25 03:03:18;;;;;;;;;1.67;1.67;;;;;13.26;100.00;101395.16;5003970;28;45635;-78
2023/12/25 03:05:43;;;;;;;;;6.00;1.67;;;;;13.25;100.00;101388.97;5004026;28;45548;-78
2023/12/25 03:08:09;;;;;;;;;3.67;1.00;;;;;13.17;100.00;101369.91;5021568;28;46100;-78
2023/12/25 03:10:34;;;;;;;;;1.00;1.00;;;;;13.00;100.00;101364.50;5021578;28;47640;-78
2023/12/25 03:12:59;;;;;;;;;4.00;2.00;;;;;12.91;100.00;101349.88;5021862;28;45273;-78
2023/12/25 03:15:25;;;;;;;;;2.67;2.00;;;;;13.18;100.00;101370.75;5021512;28;45397;-78
2023/12/25 03:17:50;;;;;;;;;1.00;1.00;;;;;13.24;100.00;101383.75;5003687;28;47913;-78
2023/12/25 03:20:18;;;;;;;;;0.33;0.33;;;;;13.24;100.00;101373.13;5022209;28;45392;-78
2023/12/25 03:22:44;;;;;;;;;1.00;1.00;;;;;13.11;100.00;101359.59;5022339;28;45325;-79
2023/12/25 03:25:10;;;;;;;;;0.00;0.00;;;;;13.24;100.00;101381.94;5022263;28;45281;-79
2023/12/25 03:27:35;;;;;;;;;3.33;0.33;;;;;13.23;100.00;101377.56;5022043;28;45747;-78
2023/12/25 03:30:01;;;;;;;;;1.33;1.33;;;;;12.98;100.00;101331.88;5004223;28;45420;-78
2023/12/25 03:32:26;;;;;;;;;1.33;1.00;;;;;13.24;100.00;101373.97;5021843;28;45607;-78
2023/12/25 03:34:51;;;;;;;;;2.67;2.00;;;;;13.06;100.00;101353.59;5022380;28;45680;-78
2023/12/25 03:37:17;;;;;;;;;2.67;1.00;;;;;13.22;100.00;101369.69;5003937;28;46529;-78
2023/12/25 03:39:43;;;;;;;;;3.00;1.00;;;;;12.77;100.00;101295.72;5021874;28;45238;-78
2023/12/25 03:42:08;;;;;;;;;5.67;1.67;;;;;13.07;100.00;101358.84;5033512;28;45354;-78
2023/12/25 03:44:33;;;;;;;;;2.00;1.00;;;;;13.05;100.00;101358.03;5034744;28;45604;-78
2023/12/25 03:46:59;;;;;;;;;3.00;0.00;;;;;13.23;100.00;101389.97;5022764;28;46715;-78
2023/12/25 03:49:24;;;;;;;;;2.00;1.00;;;;;12.92;100.00;101326.84;5040402;28;46121;-78
2023/12/25 03:51:49;;;;;;;;;1.00;1.00;;;;;13.21;100.00;101376.78;5022974;28;45427;-78
2023/12/25 03:54:15;;;;;;;;;2.67;1.00;;;;;13.06;100.00;101350.94;5040442;28;45308;-78
2023/12/25 03:56:40;;;;;;;;;0.33;0.33;;;;;13.21;100.00;101379.44;5040919;28;45496;-78
2023/12/25 03:59:05;;;;;;;;;1.67;1.67;;;;;12.58;100.00;101266.56;5038900;28;58383;-78
2023/12/25 04:01:30;;;;;;;;;2.67;2.00;;;;;13.13;100.00;101356.84;5022007;28;45343;-77
2023/12/25 04:03:56;;;;;;;;;0.00;0.00;;;;;13.23;100.00;101380.22;5037979;28;45389;-78
2023/12/25 04:06:25;;;;;;;;;1.00;1.00;;;;;13.19;100.00;101375.13;5019607;28;46572;-79
2023/12/25 04:08:50;;;;;;;;;0.00;0.00;;;;;13.20;100.00;101353.81;5003322;28;45283;-78
2023/12/25 04:11:20;;;;;;;;;0.33;0.33;;;;;13.19;100.00;101349.44;5012374;28;45393;-78
2023/12/25 04:13:46;;;;;;;;;3.67;1.00;;;;;13.17;100.00;101347.78;5039781;28;45376;-78
2023/12/25 04:16:19;;;;;;;;;4.00;1.33;;;;;13.19;100.00;101354.75;5040461;28;45766;-78
2023/12/25 04:18:45;;;;;;;;;3.00;1.00;;;;;13.12;100.00;101345.34;5038588;28;45388;-78
2023/12/25 04:21:32;;;;;;;;;3.00;2.00;;;;;12.83;100.00;101301.59;5040625;28;45270;-77
2023/12/25 04:23:58;;;;;;;;;1.00;1.00;;;;;13.05;100.00;101334.13;5040059;28;45566;-78
2023/12/25 04:26:24;;;;;;;;;2.33;2.00;;;;;12.75;100.00;101289.66;5022003;28;46884;-78
2023/12/25 04:28:50;;;;;;;;;4.00;1.00;;;;;13.10;100.00;101338.41;5040484;28;45339;-77
2023/12/25 04:31:17;;;;;;;;;1.00;1.00;;;;;13.16;100.00;101344.25;5057343;28;45300;-78
2023/12/25 04:33:42;;;;;;;;;0.00;0.00;;;;;13.02;100.00;101323.66;5042293;28;45428;-78
2023/12/25 04:36:08;;;;;;;;;1.67;1.33;;;;;13.16;100.00;101343.41;5036305;28;48083;-77
2023/12/25 04:38:33;;;;;;;;;3.00;0.00;;;;;13.05;100.00;101327.97;5022198;28;45461;-77
2023/12/25 04:40:59;;;;;;;;;0.67;0.67;;;;;13.14;100.00;101342.63;5016584;28;45397;-78
2023/12/25 04:43:25;;;;;;;;;2.00;2.00;;;;;13.14;100.00;101354.13;5033606;28;45482;-78
2023/12/25 04:45:50;;;;;;;;;5.33;1.00;;;;;13.04;100.00;101327.13;5022564;28;46831;-77
2023/12/25 04:48:16;;;;;;;;;0.33;0.00;;;;;12.99;100.00;101322.94;5019614;28;45532;-78
2023/12/25 04:50:43;;;;;;;;;1.33;0.00;;;;;13.15;100.00;101344.34;5021955;28;45553;-77
2023/12/25 04:53:08;;;;;;;;;0.33;0.33;;;;;12.95;100.00;101322.25;5038753;28;45304;-78
2023/12/25 04:55:34;;;;;;;;;4.33;2.00;;;;;13.07;100.00;101342.91;5041221;28;46012;-78
2023/12/25 04:57:59;;;;;;;;;0.00;0.00;;;;;13.14;100.00;101356.78;5041624;28;47434;-78
2023/12/25 05:00:25;;;;;;;;;1.00;0.33;;;;;13.06;100.00;101335.84;5009364;28;45410;-77
2023/12/25 05:02:50;;;;;;;;;1.00;1.00;;;;;13.15;100.00;101353.19;5039749;28;45331;-77
2023/12/25 05:05:15;;;;;;;;;0.00;0.00;;;;;13.09;100.00;101342.84;5040134;28;45283;-77
2023/12/25 05:07:41;;;;;;;;;0.00;0.00;;;;;13.04;100.00;101353.69;5022148;28;45330;-78
2023/12/25 05:10:07;;;;;;;;;2.00;1.00;;;;;13.07;100.00;101347.34;5040059;28;45348;-78
2023/12/25 05:12:32;;;;;;;;;2.00;0.00;;;;;13.13;100.00;101359.50;5022117;28;45493;-78
2023/12/25 05:14:57;;;;;;;;;0.00;0.00;;;;;13.11;100.00;101348.09;5040136;28;45303;-78
2023/12/25 05:17:23;;;;;;;;;1.00;1.00;;;;;12.95;100.00;101319.59;5021474;28;45296;-77
2023/12/25 05:19:48;;;;;;;;;0.00;0.00;;;;;12.89;100.00;101319.88;5021161;28;45365;-77
2023/12/25 05:22:15;;;;;;;;;4.33;1.00;;;;;13.06;100.00;101333.19;5021706;28;45460;-77
2023/12/25 05:24:40;;;;;;;;;3.00;0.00;;;;;13.13;100.00;101351.53;5039588;28;45441;-78
2023/12/25 05:27:05;;;;;;;;;2.00;0.67;;;;;13.07;100.00;101344.69;5039699;28;45352;-77
2023/12/25 05:29:31;;;;;;;;;1.00;0.00;;;;;13.00;100.00;101341.47;5039766;28;46009;-77
2023/12/25 05:31:57;;;;;;;;;0.67;0.33;;;;;13.12;100.00;101349.81;5021297;28;45831;-77
2023/12/25 05:34:23;;;;;;;;;2.33;0.00;;;;;12.96;100.00;101328.41;5039551;28;45336;-78
2023/12/25 05:36:48;;;;;;;;;2.00;0.00;;;;;12.96;100.00;101323.09;5021430;28;45341;-78
2023/12/25 05:39:14;;;;;;;;;5.00;1.00;;;;;12.97;100.00;101331.00;5021592;28;45494;-78
2023/12/25 05:41:40;;;;;;;;;0.00;0.00;;;;;12.97;100.00;101328.34;5039229;28;45471;-78
2023/12/25 05:44:06;;;;;;;;;3.00;0.00;;;;;13.09;100.00;101352.63;5039432;28;45294;-78
2023/12/25 05:46:31;;;;;;;;;3.00;0.00;;;;;12.91;100.00;101325.13;5021380;28;45471;-78
2023/12/25 05:48:57;;;;;;;;;0.00;0.00;;;;;12.91;100.00;101318.03;5028465;28;45447;-78
2023/12/25 05:51:22;;;;;;;;;1.00;0.00;;;;;12.94;100.00;101325.84;5038581;28;45479;-77
2023/12/25 05:53:47;;;;;;;;;0.00;0.00;;;;;13.05;100.00;101343.91;5036055;28;56476;-77
2023/12/25 05:56:12;;;;;;;;;1.00;0.00;;;;;12.96;100.00;101328.41;5029913;28;45331;-77
2023/12/25 05:58:38;;;;;;;;;0.00;0.00;;;;;12.96;100.00;101342.53;5021282;28;45255;-77
2023/12/25 06:01:03;;;;;;;;;0.00;0.00;;;;;12.88;100.00;101326.16;5039005;28;45484;-77
2023/12/25 06:03:29;;;;;;;;;0.00;0.00;;;;;12.90;100.00;101324.25;5038735;28;45562;-77
2023/12/25 06:05:54;;;;;;;;;0.00;0.00;;;;;12.98;100.00;101334.53;5039027;28;45350;-77
2023/12/25 06:08:20;;;;;;;;;0.00;0.00;;;;;13.06;100.00;101357.09;5020930;28;45310;-77
2023/12/25 06:10:46;;;;;;;;;0.67;0.00;;;;;12.99;100.00;101344.19;5038727;28;45510;-77
2023/12/25 06:13:11;;;;;;;;;1.00;0.00;;;;;12.93;100.00;101324.13;5038761;28;45400;-77
2023/12/25 06:15:37;;;;;;;;;1.00;0.00;;;;;12.99;100.00;101334.44;5021076;28;45712;-77
2023/12/25 06:18:02;;;;;;;;;0.00;0.00;;;;;12.93;100.00;101342.69;5020792;28;45374;-77
2023/12/25 06:20:28;;;;;;;;;0.00;0.00;;;;;12.96;100.00;101333.72;5021181;28;45475;-77
2023/12/25 06:22:53;;;;;;;;;1.00;0.00;;;;;13.01;100.00;101355.63;5020440;28;55509;-78
2023/12/25 06:25:18;;;;;;;;;0.00;0.00;;;;;12.97;100.00;101365.53;5039413;28;45329;-78
2023/12/25 06:27:44;;;;;;;;;0.00;0.00;;;;;12.97;100.00;101356.69;5021365;28;45363;-77
2023/12/25 06:30:10;;;;;;;;;0.00;0.00;;;;;12.88;100.00;101343.88;5021283;28;45496;-78
2023/12/25 06:32:35;;;;;;;;;0.00;0.00;;;;;12.89;100.00;101349.09;5040913;28;45442;-78
2023/12/25 06:35:00;;;;;;;;;0.00;0.00;;;;;12.83;100.00;101340.56;5041951;28;61455;-77
2023/12/25 06:37:26;;;;;;;;;0.00;0.00;;;;;13.00;100.00;101361.84;5024643;28;45274;-77
2023/12/25 06:39:51;;;;;;;;;0.00;0.00;;;;;12.87;100.00;101348.31;5024270;28;45284;-78
2023/12/25 06:42:16;;;;;;;;;0.00;0.00;;;;;12.90;100.00;101349.94;5023881;28;58357;-78
2023/12/25 06:44:42;;;;;;;;;0.00;0.00;;;;;12.98;100.00;101363.72;5042225;28;45274;-78
2023/12/25 06:47:07;;;;;;;;;0.00;0.00;;;;;13.00;100.00;101354.75;5023960;28;45389;-77
2023/12/25 06:49:32;;;;;;;;;0.00;0.00;;;;;13.03;100.00;101361.69;5042333;28;45499;-77
2023/12/25 06:51:59;;;;;;;;;0.00;0.00;;;;;12.93;100.00;101357.75;5042616;28;46288;-78
2023/12/25 06:54:24;;;;;;;;;0.00;0.00;;;;;13.03;100.00;101377.63;5024028;28;45658;-78
2023/12/25 06:56:49;;;;;;;;;0.00;0.00;;;;;12.95;100.00;101372.72;5024006;28;45400;-77
2023/12/25 06:59:15;;;;;;;;;0.00;0.00;;;;;12.79;100.00;101342.53;5024028;28;46660;-78
2023/12/25 07:01:40;;;;;;;;;0.00;0.00;;;;;12.86;100.00;101337.78;5041879;28;46337;-78
2023/12/25 07:04:08;;;;;;;;;0.00;0.00;;;;;12.97;100.00;101376.13;5013308;28;45391;-78
2023/12/25 07:06:33;;;;;;;;;0.00;0.00;;;;;12.75;100.00;101327.66;5041025;28;45385;-78
2023/12/25 07:08:59;;;;;;;;;0.00;0.00;;;;;12.97;100.00;101362.00;5042395;28;46086;-78
2023/12/25 07:11:24;;;;;;;;;0.00;0.00;;;;;12.92;100.00;101364.91;5037557;28;45294;-78
2023/12/25 07:13:49;;;;;;;;;0.00;0.00;;;;;13.07;100.00;101390.69;5022326;28;45674;-78
2023/12/25 07:16:21;;;;;;;;;1.00;0.00;;;;;12.99;100.00;101381.34;5042803;28;45389;-78
2023/12/25 07:18:49;;;;;;;;;0.67;0.00;;;;;13.04;100.00;101393.50;5023367;28;45349;-77
2023/12/25 07:21:15;;;;;;;;;1.00;0.00;;;;;13.02;100.00;101386.56;5027698;28;46345;-77
2023/12/25 07:23:41;;;;;;;;;0.00;0.00;;;;;12.84;100.00;101369.69;5041150;28;45926;-78
2023/12/25 07:26:06;;;;;;;;;0.00;0.00;;;;;13.04;100.00;101406.78;5023609;28;45381;-78
2023/12/25 07:28:31;;;;;;;;;0.00;0.00;;;;;12.89;100.00;101382.75;5023878;28;45808;-77
2023/12/25 07:30:57;;;;;;;;;0.00;0.00;;;;;12.99;100.00;101394.63;5022793;28;61033;-78
2023/12/25 07:33:22;;;;;;;;;0.00;0.00;;;;;12.95;100.00;101396.59;5023263;28;45332;-78
2023/12/25 07:35:48;;;;;;;;;0.00;0.00;;;;;13.05;100.00;101411.13;5023503;28;45428;-78
2023/12/25 07:38:13;;;;;;;;;0.00;0.00;;;;;12.92;100.00;101396.75;5041027;28;45273;-78
2023/12/25 07:40:39;;;;;;;;;0.00;0.00;;;;;13.02;100.00;101429.03;5023193;28;45634;-78
2023/12/25 07:43:07;;;;;;;;;0.00;0.00;;;;;12.96;100.00;101408.06;5022392;28;45415;-78
2023/12/25 07:45:32;;;;;;;;;0.00;0.00;;;;;12.96;100.00;101408.06;5041451;28;45621;-77
2023/12/25 07:47:57;;;;;;;;;1.00;0.00;;;;;13.03;100.00;101415.69;5022896;28;45395;-78
2023/12/25 07:50:23;;;;;;;;;0.33;0.00;;;;;13.00;100.00;101415.81;5022374;28;64985;-78
2023/12/25 07:52:48;;;;;;;;;0.00;0.00;;;;;13.00;100.00;101414.94;5039970;28;45383;-77
2023/12/25 07:55:13;;;;;;;;;0.00;0.00;;;;;12.81;100.00;101383.13;5022612;28;45464;-78
2023/12/25 07:57:39;;;;;;;;;0.00;0.00;;;;;13.05;100.00;101427.06;5039574;28;45622;-78
2023/12/25 08:00:06;;;;;;;;;0.00;0.00;;;;;12.93;100.00;101414.38;5023489;28;45287;-77
2023/12/25 08:02:32;;;;;;;;;0.00;0.00;;;;;12.94;100.00;101400.19;5040429;28;45349;-77
2023/12/25 08:04:57;;;;;;;;;1.00;0.00;;;;;12.95;100.00;101395.75;5019566;28;45425;-77
2023/12/25 08:07:23;;;;;;;;;0.00;0.00;;;;;12.52;100.00;101327.88;5028923;28;45304;-77
2023/12/25 08:09:48;;;;;;;;;0.00;0.00;;;;;13.06;100.00;101409.34;5040192;28;49350;-77
2023/12/25 08:12:14;;;;;;;;;0.00;0.00;;;;;13.03;100.00;101404.19;5039936;28;58857;-77
2023/12/25 08:14:40;;;;;;;;;1.67;0.00;;;;;13.01;100.00;101406.06;5040737;28;45388;-77
2023/12/25 08:17:05;;;;;;;;;0.00;0.00;;;;;13.05;100.00;101412.97;5040949;28;45396;-77
2023/12/25 08:19:31;;;;;;;;;0.00;0.00;;;;;12.99;100.00;101406.13;5022014;28;58817;-77
2023/12/25 08:21:56;;;;;;;;;0.00;0.00;;;;;13.02;100.00;101411.28;5023880;28;45447;-77
2023/12/25 08:24:23;;;;;;;;;0.00;0.00;;;;;12.82;100.00;101374.22;5024698;28;45528;-77
2023/12/25 08:26:48;;;;;;;;;2.00;0.00;;;;;12.73;100.00;101371.16;5040051;28;45512;-77
2023/12/25 08:29:14;;;;;;;;;0.00;0.00;;;;;13.09;100.00;101429.66;5040485;28;46052;-78
2023/12/25 08:31:39;;;;;;;;;0.00;0.00;;;;;13.01;100.00;101422.00;5022511;28;45286;-78
2023/12/25 08:34:05;;;;;;;;;0.00;0.00;;;;;12.99;100.00;101418.53;5022662;28;45306;-78
2023/12/25 08:36:30;;;;;;;;;0.00;0.00;;;;;12.95;100.00;101422.28;5040070;28;59056;-78
2023/12/25 08:38:55;;;;;;;;;0.00;0.00;;;;;13.02;100.00;101418.41;5022287;28;48155;-77
2023/12/25 08:41:21;;;;;;;;;0.00;0.00;;;;;13.06;100.00;101433.25;5039982;28;50561;-78
2023/12/25 08:43:46;;;;;;;;;0.00;0.00;;;;;13.05;100.00;101429.72;5022351;28;45294;-77
2023/12/25 08:46:11;;;;;;;;;1.00;0.00;;;;;13.02;100.00;101423.72;5040512;28;45561;-76
2023/12/25 08:48:36;;;;;;;;;0.00;0.00;;;;;13.05;100.00;101443.00;5039573;28;55007;-83
2023/12/25 08:51:02;;;;;;;;;0.00;0.00;;;;;12.98;100.00;101435.41;5021708;28;59930;-77
2023/12/25 08:53:27;;;;;;;;;0.00;0.00;;;;;12.85;100.00;101424.53;5039822;28;45290;-78
2023/12/25 08:55:53;;;;;;;;;0.00;0.00;;;;;12.91;100.00;101421.56;5021267;28;45298;-81
2023/12/25 08:58:18;;;;;;;;;0.33;0.00;;;;;13.05;100.00;101448.31;5040251;28;45790;-81
2023/12/25 09:00:44;;;;;;;;;0.00;0.00;;;;;12.95;100.00;101431.13;5056564;28;45418;-81
2023/12/25 09:03:10;;;;;;;;;0.00;0.00;;;;;13.11;100.00;101449.00;5040121;28;45492;-81
2023/12/25 09:05:35;;;;;;;;;0.00;0.00;;;;;13.13;100.00;101455.97;5039993;28;45417;-81
2023/12/25 09:08:00;;;;;;;;;0.00;0.00;;;;;12.88;100.00;101411.09;5034898;28;45479;-81
2023/12/25 09:10:26;;;;;;;;;0.00;0.00;;;;;13.06;100.00;101444.75;5022489;28;45337;-81
2023/12/25 09:12:51;;;;;;;;;0.00;0.00;;;;;13.07;100.00;101442.94;5023539;28;45591;-78
2023/12/25 09:15:17;;;;;;;;;0.00;0.00;;;;;12.65;100.00;101367.97;5039638;28;45353;-78
2023/12/25 09:17:42;;;;;;;;;1.67;0.00;;;;;13.16;100.00;101449.63;5039160;28;45993;-78
2023/12/25 09:20:08;;;;;;;;;0.00;0.00;;;;;13.03;100.00;101420.13;5039888;28;45397;-78
2023/12/25 09:22:33;;;;;;;;;0.00;0.00;;;;;13.04;100.00;101422.72;5040039;28;45459;-77
2023/12/25 09:24:59;;;;;;;;;0.00;0.00;;;;;13.26;100.00;101466.88;5039801;28;45308;-77
2023/12/25 09:27:24;;;;;;;;;1.00;0.00;;;;;13.21;100.00;101455.63;5037798;28;46793;-78
2023/12/25 09:29:50;;;;;;;;;0.00;0.00;;;;;13.24;100.00;101458.13;5039557;28;45523;-78
2023/12/25 09:32:15;;;;;;;;;0.67;0.00;;;;;13.18;100.00;101453.97;5021398;28;45293;-79
2023/12/25 09:34:40;;;;;;;;;0.00;0.00;;;;;13.16;100.00;101439.00;5021754;28;45482;-80
2023/12/25 09:37:06;;;;;;;;;0.00;0.00;;;;;13.34;100.00;101481.53;5021650;28;45502;-80
2023/12/25 09:39:32;;;;;;;;;0.00;0.00;;;;;13.27;100.00;101469.47;5039623;28;45295;-81
2023/12/25 09:41:57;;;;;;;;;0.00;0.00;;;;;13.14;100.00;101444.41;5039616;28;45389;-81
2023/12/25 09:44:23;;;;;;;;;1.00;0.00;;;;;13.12;100.00;101451.56;5039364;28;50417;-81
2023/12/25 09:46:48;;;;;;;;;0.00;0.00;;;;;13.29;100.00;101464.94;5039181;28;46343;-81
2023/12/25 09:49:14;;;;;;;;;1.00;0.00;;;;;13.17;100.00;101449.59;5039575;28;45347;-81
2023/12/25 09:51:42;;;;;;;;;0.00;0.00;;;;;13.09;100.00;101427.00;5021577;28;45384;-81
2023/12/25 09:54:08;;;;;;;;;0.00;0.00;;;;;13.50;100.00;101495.78;5039307;28;45289;-81
2023/12/25 09:56:36;;;;;;;;;0.00;0.00;;;;;13.23;100.00;101453.72;5039262;28;45786;-81
2023/12/25 09:59:03;;;;;;;;;0.00;0.00;;;;;13.29;100.00;101451.66;5039325;28;45390;-82
2023/12/25 10:01:30;;;;;;;;;0.00;0.00;;;;;13.36;100.00;101447.75;5039214;28;45332;-81
2023/12/25 10:03:57;;;;;;;;;0.00;0.00;;;;;13.29;100.00;101422.41;5038940;28;45495;-78
2023/12/25 10:06:22;;;;;;;;;0.00;0.00;;;;;13.35;100.00;101437.22;5038941;28;45494;-79
2023/12/25 10:08:48;;;;;;;;;0.00;0.00;;;;;13.20;100.00;101411.38;5038764;28;45310;-83
2023/12/25 10:11:13;;;;;;;;;4.00;0.00;;;;;13.76;100.00;101483.88;5038681;28;45316;-82
2023/12/25 10:13:42;;;;;;;;;0.00;0.00;;;;;13.67;100.00;101457.78;5034137;28;45502;-78
2023/12/25 10:16:07;;;;;;;;;0.00;0.00;;;;;13.86;100.00;101486.94;5037596;28;46322;-79
2023/12/25 10:18:33;;;;;;;;;1.00;0.00;;;;;13.92;100.00;101482.19;5038560;28;45353;-78
2023/12/25 10:21:01;;;;;;;;;0.00;0.00;;;;;13.91;100.00;101491.09;5038650;28;45607;-79
2023/12/25 10:23:30;;;;;;;;;0.00;0.00;;;;;13.92;100.00;101481.31;5038547;28;45362;-82
2023/12/25 10:25:59;;;;;;;;;0.00;0.00;;;;;13.91;100.00;101480.44;5038370;28;45476;-80
2023/12/25 10:28:29;;;;;;;;;0.00;0.00;;;;;13.87;100.00;101473.56;5038316;28;45438;-78
2023/12/25 10:31:06;;;;;;;;;0.00;0.00;;;;;13.90;100.00;101478.75;5038583;28;45374;-78
2023/12/25 10:33:33;;;;;;;;;1.00;0.00;;;;;13.82;100.00;101469.41;5037623;28;45218;-82
2023/12/25 10:36:09;;;;;;;;;0.00;0.00;;;;;13.64;100.00;101465.03;5038476;28;46633;-79
2023/12/25 10:38:35;;;;;;;;;1.00;0.00;;;;;13.89;100.00;101498.28;5037828;28;45377;-79
2023/12/25 10:41:33;;;;;;;;;0.67;0.67;;;;;13.80;100.00;101481.94;5038588;28;45379;-78
2023/12/25 10:44:03;;;;;;;;;0.00;0.00;;;;;13.18;100.00;101392.88;5018076;28;45501;-80
2023/12/25 10:46:34;;;;;;;;;0.00;0.00;;;;;13.06;100.00;101378.34;5038261;28;46461;-84
2023/12/25 10:49:01;;;;;;;;;1.33;0.00;;;;;13.43;100.00;101438.56;5038568;28;45388;-83
2023/12/25 10:51:34;;;;;;;;;1.00;1.00;;;;;13.33;100.00;101423.13;5038552;28;45332;-83
2023/12/25 10:54:08;;;;;;;;;0.67;0.00;;;;;13.27;100.00;101403.06;5038796;28;45222;-83
2023/12/25 10:56:36;;;;;;;;;2.00;0.00;;;;;13.36;100.00;101413.22;5019659;28;46775;-83
2023/12/25 10:59:24;;;;;;;;;1.00;1.00;;;;;13.02;100.00;101366.16;5020468;28;45350;-77
2023/12/25 11:01:50;;;;;;;;;0.00;0.00;;;;;13.50;100.00;101433.81;5038440;28;45385;-78
2023/12/25 11:04:16;;;;;;;;;1.33;1.33;;;;;13.66;100.00;101460.47;5038543;28;45393;-80
2023/12/25 11:06:44;;;;;;;;;13.67;9.33;;;;;13.65;100.00;101456.09;5038394;28;46287;-83
2023/12/25 11:09:11;;;;;;;;;12.00;10.67;;;;;13.21;100.00;101387.41;5033860;28;45531;-81
2023/12/25 11:11:38;;;;;;;;;4.50;3.00;;;;;13.37;100.00;101409.63;5038468;28;45387;-81